PINE FLAT DAM (PNF)

Elevation: 970' · KINGS R basin · Operator: US Army Corps of Engineers

Provisional data, subject to change.
Query executed Wednesday at 18:09:24   clock

Select a sensor type for a plot of data.
Note: Reservoir Flows are daily averages.

Earlier

Date RES ELE    STORAGE    RES CHG    TOC STO    ABV TOC    OUTFLOW    INFLOW    FNF    PPT INC    PPTINC4    TEMP MN    TEMP MX    WINDLEN    EVP PAN   
 FEET   AF   AF   AF   AF   CFS   CFS   CFS   INCHES   INCHES   DEG F   DEG F   MILES   INCHES  
02/05/2015 729.80 132505 61 751818 -619313 185 222 192 0.00 0.00 -- -- 35 0.10
02/06/2015 729.82 132545 40 754773 -622228 180 204 204 0.09 0.00 -- -- 36 0.08
02/07/2015 730.39 133703 1158 757727 -624024 176 762 1153 1.12 0.70 -- -- 36 0.04
02/08/2015 731.90 136796 3093 760682 -- 175 1738 2295 0.14 0.41 -- -- 41 0.06
02/09/2015 734.04 141242 4446 763636 -622394 173 2420 2976 0.00 0.13 -- -- 52 0.09
02/10/2015 735.10 143473 2231 766591 -623118 174 1304 1467 0.00 0.00 -- -- 38 0.08
02/11/2015 735.74 144828 1355 769545 -624717 176 865 1031 0.01 0.00 -- -- 37 0.09
02/12/2015 736.26 145934 1106 772500 -626566 174 738 864 0.00 0.00 -- -- 37 0.10
02/13/2015 736.69 146852 918 775454 -628602 173 643 823 0.00 0.00 -- -- 39 0.10
02/14/2015 737.17 147881 1029 778409 -630528 174 700 835 0.00 0.00 -- -- 38 0.11
02/15/2015 737.59 148784 903 781364 -632580 175 637 773 0.00 0.00 -- -- 35 0.10
02/16/2015 738.00 149668 884 784318 -634650 175 627 763 0.00 0.00 -- -- 41 0.11
02/17/2015 738.36 150446 778 787273 -636827 175 574 717 0.00 0.00 -- -- 41 0.11
02/18/2015 738.76 151314 868 790227 -638913 154 597 690 0.00 0.00 -- -- 46 0.09
02/19/2015 739.13 152119 805 793182 -641063 153 566 732 0.00 0.00 -- -- 40 0.10
02/20/2015 739.54 153014 895 796136 -643122 152 609 719 0.00 0.00 -- -- 46 0.09
02/21/2015 -- 153814 e -- 799091 -- -- -- 656 0.00 0.00 -- -- -- --
02/22/2015 740.34 154767 -- 802045 -- 151 650 774 1.10 0.00 -- -- -- 0.02
02/23/2015 740.86 155913 1299 805000 -649087 121 702 866 0.73 0.70 -- -- 36 0.05
02/24/2015 741.28 156841 928 807954 -651114 94 568 691 0.00 0.59 -- -- 40 0.10
02/25/2015 741.68 157728 -- 810909 -- 111 565 696 0.00 0.00 -- -- 45 0.10
02/26/2015 742.08 158617 889 813864 -655247 115 570 701 0.00 0.00 -- -- 40 0.10
02/27/2015 742.48 159509 892 816818 -657309 115 571 659 0.00 0.00 -- -- 47 0.10
02/28/2015 742.90 160449 940 819773 -659324 116 597 695 0.00 0.00 -- -- 43 0.12
03/01/2015 743.27 161279 830 822727 -661448 117 542 629 0.00 0.00 -- -- 49 0.10
03/02/2015 743.62 162066 787 825682 -663616 -- -- 601 -- 0.00 -- -- -- --
03/03/2015 743.96 162833 767 828636 -665803 -- -- -- -- 0.14 -- -- -- --
03/04/2015 -- -- -- -- -- -- -- -- -- 0.00 -- -- -- --

Later | Latest

Warning! This data is preliminary and subject to revision.

Show PNF Map | Plot PNF Data | 1 Month PNF Data | Real-Time PNF Data | PNF Info